Molina, Colorado
Current Conditions -  °F | °C
As of 6:53 AM on Friday 31 Oct 2014 (Local Time) from KGJT Reporting Station
Clear Clear  
Wind Chill: 33°   Ceiling: Unl
Heat Index: 40°   Visibility: 10mi
Dew Point: 26°   Wind: 10mph
Humidity: 58%   Direction: 80°E
Pressure: 30.19"   Gusts: NA
Location:  39.19°N, 108.06°W
Report Text: KGJT 311253Z 08009KT 10SM CLR 04/M03 A3019 RMK AO2 SLP205 T00441033
Loading
Personal Weather Stations






























Interactive Weather Map
Tropical Storm Tracking
New forecast layout! Learn more

10-Day Weather Forecast

Advertisements
Track Severe Weather on mobile